^^
Paulen-Weather Station Historical Data
Daily Summary for July 02, 2022 Units:  Metric    English   Both
Daily Weekly Monthly Yearly Custom
  High: Low: Average:
Temperature: 16 °C 15 °C 15.1 °C
Dew Point: 14 °C 13 °C 13.9 °C
Humidity: 94% 86% 92%
Wind Speed: 16km/h 2km/h 7.5km/h
Wind Gust: 14km/h - -
Wind- - WSW
Pressure: 1014.87 hPa 1013.48 hPa -
Precipitation: 0 mm    
Historical Graphs
 
 
Tabular Data for July 02, 2022
Time Temperature Dew Point Pressure Wind Wind Speed Wind Gust Humidity Rainfall Rate (Hourly) solar
00:04 15 °C 14 °C 1013.82 hPa W 7 km/h 6 km/h 92% 0 mm 0 W/m2
00:09 15 °C 14 °C 1013.88 hPa WSW 6 km/h 5 km/h 93% 0 mm 0 W/m2
00:14 15 °C 14 °C 1013.95 hPa W 8 km/h 7 km/h 93% 0 mm 0 W/m2
00:19 15 °C 14 °C 1013.92 hPa W 6 km/h 5 km/h 93% 0 mm 0 W/m2
00:24 15 °C 14 °C 1013.82 hPa W 6 km/h 4 km/h 93% 0 mm 0 W/m2
00:29 15 °C 14 °C 1013.72 hPa W 7 km/h 5 km/h 93% 0 mm 0 W/m2
00:34 15 °C 14 °C 1013.75 hPa W 6 km/h 4 km/h 92% 0 mm 0 W/m2
00:39 15 °C 14 °C 1013.82 hPa WSW 4 km/h 2 km/h 93% 0 mm 0 W/m2
00:44 15 °C 14 °C 1013.95 hPa W 5 km/h 4 km/h 93% 0 mm 0 W/m2
00:49 15 °C 14 °C 1013.99 hPa W 4 km/h 2 km/h 93% 0 mm 0 W/m2
00:54 15 °C 14 °C 1014.05 hPa WSW 2 km/h 1 km/h 93% 0 mm 0 W/m2
00:59 15 °C 14 °C 1014.12 hPa W 2 km/h 2 km/h 93% 0 mm 0 W/m2
01:04 15 °C 14 °C 1014.19 hPa WNW 3 km/h 2 km/h 93% 0 mm 0 W/m2
01:09 15 °C 14 °C 1014.22 hPa WNW 3 km/h 2 km/h 93% 0 mm 0 W/m2
01:14 15 °C 14 °C 1014.16 hPa WNW 5 km/h 3 km/h 93% 0 mm 0 W/m2
01:19 15 °C 14 °C 1014.26 hPa W 2 km/h 3 km/h 93% 0 mm 0 W/m2
01:24 15 °C 14 °C 1014.22 hPa W 3 km/h 3 km/h 94% 0 mm 0 W/m2
01:29 15 °C 14 °C 1014.19 hPa WNW 5 km/h 4 km/h 94% 0 mm 0 W/m2
01:34 15 °C 14 °C 1014.12 hPa W 4 km/h 5 km/h 94% 0 mm 0 W/m2
01:39 15 °C 14 °C 1014.12 hPa WNW 4 km/h 3 km/h 94% 0 mm 0 W/m2
01:44 15 °C 14 °C 1014.19 hPa W 4 km/h 3 km/h 94% 0 mm 0 W/m2
01:49 15 °C 14 °C 1014.19 hPa W 7 km/h 4 km/h 94% 0 mm 0 W/m2
01:54 15 °C 14 °C 1014.16 hPa WNW 5 km/h 3 km/h 94% 0 mm 0 W/m2
01:59 15 °C 14 °C 1014.16 hPa W 5 km/h 4 km/h 94% 0 mm 0 W/m2
02:04 15 °C 14 °C 1014.09 hPa WNW 6 km/h 5 km/h 94% 0 mm 0 W/m2
02:09 15 °C 14 °C 1013.99 hPa WNW 5 km/h 5 km/h 94% 0 mm 0 W/m2
02:14 15 °C 14 °C 1013.95 hPa WNW 8 km/h 5 km/h 94% 0 mm 0 W/m2
02:19 15 °C 14 °C 1013.92 hPa W 8 km/h 7 km/h 93% 0 mm 0 W/m2
02:24 15 °C 14 °C 1013.92 hPa WSW 8 km/h 7 km/h 93% 0 mm 0 W/m2
02:29 15 °C 14 °C 1014.02 hPa W 9 km/h 7 km/h 93% 0 mm 0 W/m2
02:34 15 °C 14 °C 1014.02 hPa SW 6 km/h 7 km/h 93% 0 mm 0 W/m2
02:39 15 °C 14 °C 1013.95 hPa W 8 km/h 6 km/h 93% 0 mm 0 W/m2
02:44 15 °C 14 °C 1013.85 hPa WSW 9 km/h 7 km/h 92% 0 mm 0 W/m2
02:49 15 °C 14 °C 1013.82 hPa WSW 7 km/h 7 km/h 92% 0 mm 0 W/m2
02:54 15 °C 14 °C 1013.78 hPa W 9 km/h 8 km/h 92% 0 mm 0 W/m2
02:59 15 °C 14 °C 1013.72 hPa W 8 km/h 6 km/h 92% 0 mm 0 W/m2
03:04 15 °C 14 °C 1013.72 hPa W 6 km/h 4 km/h 92% 0 mm 0 W/m2
03:09 15 °C 14 °C 1013.75 hPa WSW 9 km/h 6 km/h 92% 0 mm 0 W/m2
03:14 15 °C 14 °C 1013.78 hPa SSW 6 km/h 5 km/h 92% 0 mm 0 W/m2
03:19 15 °C 14 °C 1013.85 hPa WSW 7 km/h 5 km/h 92% 0 mm 0 W/m2
03:24 15 °C 14 °C 1013.82 hPa SSW 10 km/h 8 km/h 91% 0 mm 0 W/m2
03:29 15 °C 14 °C 1013.75 hPa SW 11 km/h 8 km/h 90% 0 mm 0 W/m2
03:34 15 °C 14 °C 1013.65 hPa WSW 10 km/h 8 km/h 90% 0 mm 0 W/m2
03:39 15 °C 14 °C 1013.65 hPa W 8 km/h 6 km/h 89% 0 mm 0 W/m2
03:44 15 °C 14 °C 1013.58 hPa W 8 km/h 5 km/h 90% 0 mm 0 W/m2
03:49 15 °C 14 °C 1013.58 hPa WSW 9 km/h 8 km/h 90% 0 mm 0 W/m2
03:54 15 °C 14 °C 1013.61 hPa WSW 12 km/h 8 km/h 90% 0 mm 0 W/m2
03:59 15 °C 14 °C 1013.72 hPa WSW 11 km/h 8 km/h 90% 0 mm 0 W/m2
04:04 15 °C 14 °C 1013.75 hPa WSW 11 km/h 8 km/h 90% 0 mm 0 W/m2
04:09 15 °C 14 °C 1013.72 hPa WSW 8 km/h 5 km/h 90% 0 mm 0 W/m2
04:14 15 °C 14 °C 1013.75 hPa W 8 km/h 6 km/h 90% 0 mm 0 W/m2
04:19 15 °C 14 °C 1013.78 hPa W 7 km/h 5 km/h 90% 0 mm 0 W/m2
04:24 15 °C 14 °C 1013.82 hPa W 7 km/h 5 km/h 90% 0 mm 0 W/m2
04:29 15 °C 14 °C 1013.82 hPa W 9 km/h 7 km/h 90% 0 mm 0 W/m2
04:34 15 °C 14 °C 1013.75 hPa WSW 8 km/h 8 km/h 91% 0 mm 0 W/m2
04:39 15 °C 14 °C 1013.75 hPa WSW 9 km/h 8 km/h 91% 0 mm 0 W/m2
04:44 15 °C 14 °C 1013.68 hPa WSW 7 km/h 6 km/h 91% 0 mm 7 W/m2
04:49 15 °C 14 °C 1013.65 hPa WNW 8 km/h 5 km/h 91% 0 mm 7 W/m2
04:54 15 °C 14 °C 1013.68 hPa W 6 km/h 4 km/h 91% 0 mm 7 W/m2
04:59 15 °C 13 °C 1013.72 hPa WSW 5 km/h 3 km/h 91% 0 mm 9 W/m2
05:04 15 °C 13 °C 1013.58 hPa WSW 7 km/h 5 km/h 91% 0 mm 9 W/m2
05:09 15 °C 13 °C 1013.58 hPa WSW 6 km/h 5 km/h 91% 0 mm 11 W/m2
05:14 15 °C 14 °C 1013.48 hPa W 6 km/h 6 km/h 92% 0 mm 11 W/m2
05:19 15 °C 13 °C 1013.61 hPa W 6 km/h 5 km/h 92% 0 mm 14 W/m2
05:24 15 °C 13 °C 1013.61 hPa W 6 km/h 6 km/h 92% 0 mm 16 W/m2
05:29 15 °C 13 °C 1013.61 hPa WSW 8 km/h 6 km/h 92% 0 mm 18 W/m2
05:34 15 °C 13 °C 1013.65 hPa WSW 6 km/h 5 km/h 92% 0 mm 18 W/m2
05:39 15 °C 13 °C 1013.72 hPa WSW 6 km/h 6 km/h 92% 0 mm 16 W/m2
05:44 15 °C 13 °C 1013.75 hPa WSW 6 km/h 6 km/h 92% 0 mm 16 W/m2
05:49 15 °C 14 °C 1013.88 hPa WSW 6 km/h 6 km/h 92% 0 mm 19 W/m2
05:54 15 °C 14 °C 1013.92 hPa SW 6 km/h 4 km/h 93% 0 mm 30 W/m2
05:59 15 °C 14 °C 1013.99 hPa WSW 7 km/h 5 km/h 93% 0 mm 40 W/m2
06:04 15 °C 14 °C 1014.02 hPa WSW 7 km/h 6 km/h 93% 0 mm 44 W/m2
06:09 15 °C 14 °C 1014.12 hPa WSW 5 km/h 5 km/h 93% 0 mm 51 W/m2
06:14 15 °C 14 °C 1014.19 hPa SW 6 km/h 4 km/h 93% 0 mm 58 W/m2
06:19 15 °C 14 °C 1014.26 hPa SW 7 km/h 5 km/h 92% 0 mm 65 W/m2
06:24 15 °C 14 °C 1014.22 hPa WSW 6 km/h 4 km/h 92% 0 mm 72 W/m2
06:29 15 °C 14 °C 1014.33 hPa WSW 4 km/h 4 km/h 92% 0 mm 77 W/m2
06:34 15 °C 14 °C 1014.49 hPa WSW 5 km/h 5 km/h 92% 0 mm 116 W/m2
06:39 15 °C 14 °C 1014.6 hPa S 4 km/h 5 km/h 92% 0 mm 109 W/m2
06:44 15 °C 14 °C 1014.6 hPa SW 5 km/h 4 km/h 92% 0 mm 49 W/m2
06:49 15 °C 14 °C 1014.66 hPa SW 10 km/h 10 km/h 91% 0 mm 40 W/m2
06:54 15 °C 14 °C 1014.63 hPa SW 12 km/h 11 km/h 91% 0 mm 77 W/m2
06:59 15 °C 14 °C 1014.56 hPa SW 13 km/h 9 km/h 91% 0 mm 95 W/m2
07:04 15 °C 14 °C 1014.49 hPa SSW 11 km/h 8 km/h 91% 0 mm 95 W/m2
07:09 15 °C 14 °C 1014.53 hPa SSW 9 km/h 7 km/h 91% 0 mm 97 W/m2
07:14 15 °C 14 °C 1014.56 hPa SW 9 km/h 6 km/h 90% 0 mm 102 W/m2
07:19 15 °C 14 °C 1014.6 hPa SW 12 km/h 11 km/h 89% 0 mm 116 W/m2
07:24 15 °C 14 °C 1014.66 hPa SW 12 km/h 8 km/h 89% 0 mm 123 W/m2
07:29 16 °C 14 °C 1014.77 hPa SW 12 km/h 6 km/h 89% 0 mm 107 W/m2
07:34 16 °C 14 °C 1014.8 hPa SW 8 km/h 8 km/h 89% 0 mm 76 W/m2
07:39 16 °C 14 °C 1014.66 hPa SW 13 km/h 11 km/h 88% 0 mm 56 W/m2
07:44 16 °C 14 °C 1014.77 hPa SW 13 km/h 11 km/h 88% 0 mm 69 W/m2
07:49 16 °C 13 °C 1014.87 hPa SSW 10 km/h 11 km/h 87% 0 mm 65 W/m2
07:54 16 °C 13 °C 1014.87 hPa SSW 14 km/h 12 km/h 87% 0 mm 69 W/m2
07:59 16 °C 13 °C 1014.83 hPa SSW 15 km/h 10 km/h 86% 0 mm 69 W/m2
08:04 16 °C 13 °C 1014.83 hPa SSW 15 km/h 12 km/h 86% 0 mm 113 W/m2
08:09 16 °C 13 °C 1014.77 hPa SSW 16 km/h 14 km/h 87% 0 mm 104 W/m2
Compliments of Weather Underground - 2 mb